sensor_id;sensor_type;location;lat;lon;timestamp;pressure;altitude;pressure_sealevel;temperature;humidity
20111;BME280;10216;42.658;23.248;2023-07-20T00:01:28;93451.19;;;22.39;61.58
20111;BME280;10216;42.658;23.248;2023-07-20T00:03:54;93450.03;;;22.52;61.67
20111;BME280;10216;42.658;23.248;2023-07-20T00:06:23;93446.97;;;22.60;61.64
20111;BME280;10216;42.658;23.248;2023-07-20T00:08:50;93433.72;;;22.67;62.63
20111;BME280;10216;42.658;23.248;2023-07-20T00:11:16;93431.13;;;22.72;61.85
20111;BME280;10216;42.658;23.248;2023-07-20T00:13:41;93426.94;;;22.71;62.52
20111;BME280;10216;42.658;23.248;2023-07-20T00:16:07;93424.59;;;22.69;62.19
20111;BME280;10216;42.658;23.248;2023-07-20T00:18:32;93431.88;;;22.67;61.12
20111;BME280;10216;42.658;23.248;2023-07-20T00:20:57;93431.72;;;22.74;60.44
20111;BME280;10216;42.658;23.248;2023-07-20T00:23:25;93460.63;;;22.84;61.89
20111;BME280;10216;42.658;23.248;2023-07-20T00:25:50;93469.78;;;22.81;60.85
20111;BME280;10216;42.658;23.248;2023-07-20T00:28:16;93470.13;;;22.90;59.93
20111;BME280;10216;42.658;23.248;2023-07-20T00:30:41;93467.25;;;22.91;61.52
20111;BME280;10216;42.658;23.248;2023-07-20T00:33:10;93462.75;;;22.87;61.19
20111;BME280;10216;42.658;23.248;2023-07-20T00:35:36;93461.34;;;22.79;62.81
20111;BME280;10216;42.658;23.248;2023-07-20T00:38:03;93464.78;;;22.80;62.20
20111;BME280;10216;42.658;23.248;2023-07-20T00:40:28;93472.75;;;22.90;62.58
20111;BME280;10216;42.658;23.248;2023-07-20T00:42:54;93467.19;;;22.86;62.07
20111;BME280;10216;42.658;23.248;2023-07-20T00:45:19;93458.88;;;22.89;63.58
20111;BME280;10216;42.658;23.248;2023-07-20T00:47:45;93451.50;;;22.86;63.17
20111;BME280;10216;42.658;23.248;2023-07-20T00:50:10;93447.00;;;22.82;63.36
20111;BME280;10216;42.658;23.248;2023-07-20T00:52:37;93439.41;;;22.64;63.54
20111;BME280;10216;42.658;23.248;2023-07-20T00:55:05;93451.59;;;22.53;64.41
20111;BME280;10216;42.658;23.248;2023-07-20T00:57:31;93443.16;;;22.46;63.64
20111;BME280;10216;42.658;23.248;2023-07-20T00:59:57;93450.63;;;22.37;64.63
20111;BME280;10216;42.658;23.248;2023-07-20T01:02:23;93440.75;;;22.23;64.74
20111;BME280;10216;42.658;23.248;2023-07-20T01:04:49;93441.41;;;22.13;65.03
20111;BME280;10216;42.658;23.248;2023-07-20T01:07:25;93439.91;;;22.00;66.06
20111;BME280;10216;42.658;23.248;2023-07-20T01:10:12;93443.69;;;21.93;65.88
20111;BME280;10216;42.658;23.248;2023-07-20T01:12:43;93452.97;;;21.83;66.27
20111;BME280;10216;42.658;23.248;2023-07-20T01:15:12;93443.97;;;21.74;66.43
20111;BME280;10216;42.658;23.248;2023-07-20T01:17:37;93445.00;;;21.73;67.57
20111;BME280;10216;42.658;23.248;2023-07-20T01:20:03;93442.53;;;21.67;67.47
20111;BME280;10216;42.658;23.248;2023-07-20T01:33:26;93446.56;;;21.41;69.04
20111;BME280;10216;42.658;23.248;2023-07-20T01:35:56;93459.91;;;21.28;69.05
20111;BME280;10216;42.658;23.248;2023-07-20T01:38:24;93463.50;;;21.10;69.76
20111;BME280;10216;42.658;23.248;2023-07-20T01:40:50;93461.28;;;21.02;70.24
20111;BME280;10216;42.658;23.248;2023-07-20T01:43:16;93453.81;;;20.94;70.88
20111;BME280;10216;42.658;23.248;2023-07-20T01:45:43;93439.88;;;20.88;71.27
20111;BME280;10216;42.658;23.248;2023-07-20T01:48:08;93435.91;;;20.86;72.15
20111;BME280;10216;42.658;23.248;2023-07-20T01:50:34;93433.22;;;20.81;72.39
20111;BME280;10216;42.658;23.248;2023-07-20T01:53:00;93425.19;;;20.71;73.21
20111;BME280;10216;42.658;23.248;2023-07-20T01:55:25;93424.75;;;20.62;73.53
20111;BME280;10216;42.658;23.248;2023-07-20T01:57:51;93436.22;;;20.61;74.49
20111;BME280;10216;42.658;23.248;2023-07-20T02:00:16;93427.16;;;20.63;74.16
20111;BME280;10216;42.658;23.248;2023-07-20T02:02:44;93433.88;;;20.59;74.62
20111;BME280;10216;42.658;23.248;2023-07-20T02:05:09;93429.66;;;20.58;74.38
20111;BME280;10216;42.658;23.248;2023-07-20T02:07:34;93433.44;;;20.51;75.30
20111;BME280;10216;42.658;23.248;2023-07-20T02:10:00;93434.91;;;20.47;76.10
20111;BME280;10216;42.658;23.248;2023-07-20T02:12:25;93434.34;;;20.45;75.63
20111;BME280;10216;42.658;23.248;2023-07-20T02:14:51;93434.38;;;20.33;76.22
20111;BME280;10216;42.658;23.248;2023-07-20T02:17:17;93426.88;;;20.25;77.20
20111;BME280;10216;42.658;23.248;2023-07-20T02:19:42;93433.78;;;20.19;77.44
20111;BME280;10216;42.658;23.248;2023-07-20T02:22:07;93427.66;;;20.25;77.60
20111;BME280;10216;42.658;23.248;2023-07-20T02:24:34;93433.56;;;20.21;77.46
20111;BME280;10216;42.658;23.248;2023-07-20T02:26:59;93427.47;;;20.15;77.62
20111;BME280;10216;42.658;23.248;2023-07-20T02:29:24;93424.88;;;20.15;78.54
20111;BME280;10216;42.658;23.248;2023-07-20T02:31:50;93429.28;;;20.15;78.54
20111;BME280;10216;42.658;23.248;2023-07-20T02:34:15;93430.31;;;20.14;78.69
20111;BME280;10216;42.658;23.248;2023-07-20T02:36:41;93426.56;;;20.10;79.19
20111;BME280;10216;42.658;23.248;2023-07-20T02:39:08;93431.00;;;20.09;78.96
20111;BME280;10216;42.658;23.248;2023-07-20T02:41:33;93418.53;;;20.00;79.83
20111;BME280;10216;42.658;23.248;2023-07-20T02:43:59;93411.41;;;19.95;79.92
20111;BME280;10216;42.658;23.248;2023-07-20T02:46:25;93406.88;;;19.91;79.60
20111;BME280;10216;42.658;23.248;2023-07-20T02:48:50;93402.56;;;19.84;80.01
20111;BME280;10216;42.658;23.248;2023-07-20T02:51:16;93394.19;;;19.82;80.60
20111;BME280;10216;42.658;23.248;2023-07-20T02:53:41;93400.41;;;19.81;80.95
20111;BME280;10216;42.658;23.248;2023-07-20T02:56:06;93402.69;;;19.78;79.93
20111;BME280;10216;42.658;23.248;2023-07-20T02:58:34;93407.53;;;19.74;80.46
20111;BME280;10216;42.658;23.248;2023-07-20T03:01:02;93407.34;;;19.64;80.54
20111;BME280;10216;42.658;23.248;2023-07-20T03:03:28;93409.59;;;19.61;82.06
20111;BME280;10216;42.658;23.248;2023-07-20T03:05:53;93415.81;;;19.60;81.14
20111;BME280;10216;42.658;23.248;2023-07-20T03:08:21;93409.84;;;19.59;80.19
20111;BME280;10216;42.658;23.248;2023-07-20T03:10:46;93402.09;;;19.53;80.30
20111;BME280;10216;42.658;23.248;2023-07-20T03:13:11;93411.75;;;19.52;80.32
20111;BME280;10216;42.658;23.248;2023-07-20T03:15:38;93408.22;;;19.46;80.85
20111;BME280;10216;42.658;23.248;2023-07-20T03:18:03;93411.47;;;19.42;81.12
20111;BME280;10216;42.658;23.248;2023-07-20T03:20:29;93401.81;;;19.31;81.38
20111;BME280;10216;42.658;23.248;2023-07-20T03:22:54;93423.91;;;19.40;81.95
20111;BME280;10216;42.658;23.248;2023-07-20T03:25:20;93425.28;;;19.42;82.21
20111;BME280;10216;42.658;23.248;2023-07-20T03:27:46;93426.81;;;19.50;82.43
20111;BME280;10216;42.658;23.248;2023-07-20T03:30:11;93432.34;;;19.54;82.06
20111;BME280;10216;42.658;23.248;2023-07-20T03:32:37;93427.94;;;19.54;82.09
20111;BME280;10216;42.658;23.248;2023-07-20T03:35:02;93425.78;;;19.51;81.80
20111;BME280;10216;42.658;23.248;2023-07-20T03:37:28;93429.19;;;19.52;82.41
20111;BME280;10216;42.658;23.248;2023-07-20T03:39:53;93424.41;;;19.48;82.50
20111;BME280;10216;42.658;23.248;2023-07-20T03:42:19;93422.38;;;19.51;82.61
20111;BME280;10216;42.658;23.248;2023-07-20T03:44:44;93421.50;;;19.57;82.56
20111;BME280;10216;42.658;23.248;2023-07-20T03:47:09;93417.06;;;19.57;83.33
20111;BME280;10216;42.658;23.248;2023-07-20T03:49:35;93432.59;;;19.64;82.67
20111;BME280;10216;42.658;23.248;2023-07-20T03:52:01;93438.00;;;19.74;82.74
20111;BME280;10216;42.658;23.248;2023-07-20T03:54:28;93421.38;;;19.63;82.60
20111;BME280;10216;42.658;23.248;2023-07-20T03:56:53;93437.25;;;19.73;82.15
20111;BME280;10216;42.658;23.248;2023-07-20T03:59:19;93439.28;;;19.71;82.87
20111;BME280;10216;42.658;23.248;2023-07-20T04:01:45;93426.91;;;19.67;82.83
20111;BME280;10216;42.658;23.248;2023-07-20T04:04:10;93431.91;;;19.80;82.31
20111;BME280;10216;42.658;23.248;2023-07-20T04:06:35;93427.59;;;19.85;82.56
20111;BME280;10216;42.658;23.248;2023-07-20T04:09:01;93410.03;;;19.93;82.72
20111;BME280;10216;42.658;23.248;2023-07-20T04:11:26;93412.97;;;20.08;81.95
20111;BME280;10216;42.658;23.248;2023-07-20T04:13:52;93416.03;;;20.16;81.92
20111;BME280;10216;42.658;23.248;2023-07-20T04:16:17;93408.75;;;20.18;82.33
20111;BME280;10216;42.658;23.248;2023-07-20T04:18:42;93403.41;;;20.25;83.03
20111;BME280;10216;42.658;23.248;2023-07-20T04:21:08;93411.25;;;20.37;82.34
20111;BME280;10216;42.658;23.248;2023-07-20T04:23:34;93405.22;;;20.36;82.29
20111;BME280;10216;42.658;23.248;2023-07-20T04:26:00;93403.38;;;20.48;82.39
20111;BME280;10216;42.658;23.248;2023-07-20T04:28:26;93407.34;;;20.51;81.80
20111;BME280;10216;42.658;23.248;2023-07-20T04:30:52;93404.03;;;20.55;80.84
20111;BME280;10216;42.658;23.248;2023-07-20T04:33:17;93408.66;;;20.65;81.90
20111;BME280;10216;42.658;23.248;2023-07-20T04:35:53;93402.66;;;20.64;81.86
20111;BME280;10216;42.658;23.248;2023-07-20T04:38:20;93404.31;;;20.71;80.34
20111;BME280;10216;42.658;23.248;2023-07-20T04:40:47;93405.19;;;20.76;80.56
20111;BME280;10216;42.658;23.248;2023-07-20T04:43:17;93409.38;;;20.89;81.18
20111;BME280;10216;42.658;23.248;2023-07-20T04:45:42;93407.28;;;20.91;79.71
20111;BME280;10216;42.658;23.248;2023-07-20T04:48:15;93409.59;;;20.87;76.99
20111;BME280;10216;42.658;23.248;2023-07-20T04:50:42;93403.34;;;21.05;78.02
20111;BME280;10216;42.658;23.248;2023-07-20T04:53:13;93410.81;;;21.13;77.22
20111;BME280;10216;42.658;23.248;2023-07-20T04:55:39;93406.25;;;21.20;76.96
20111;BME280;10216;42.658;23.248;2023-07-20T04:58:06;93400.88;;;21.27;76.35
20111;BME280;10216;42.658;23.248;2023-07-20T05:00:35;93403.25;;;21.28;76.61
20111;BME280;10216;42.658;23.248;2023-07-20T05:03:00;93403.34;;;21.33;75.17
20111;BME280;10216;42.658;23.248;2023-07-20T05:05:26;93400.25;;;21.36;75.73
20111;BME280;10216;42.658;23.248;2023-07-20T05:07:51;93397.31;;;21.50;76.50
20111;BME280;10216;42.658;23.248;2023-07-20T05:10:17;93402.88;;;21.53;75.64
20111;BME280;10216;42.658;23.248;2023-07-20T05:12:42;93398.97;;;21.56;74.88
20111;BME280;10216;42.658;23.248;2023-07-20T05:15:08;93404.22;;;21.56;74.60
20111;BME280;10216;42.658;23.248;2023-07-20T05:17:34;93403.19;;;21.40;73.41
20111;BME280;10216;42.658;23.248;2023-07-20T05:19:59;93413.25;;;21.65;73.98
20111;BME280;10216;42.658;23.248;2023-07-20T05:22:24;93414.03;;;21.82;74.37
20111;BME280;10216;42.658;23.248;2023-07-20T05:24:50;93414.94;;;21.93;73.39
20111;BME280;10216;42.658;23.248;2023-07-20T05:27:16;93415.44;;;21.90;72.90
20111;BME280;10216;42.658;23.248;2023-07-20T05:29:45;93422.25;;;22.07;74.16
20111;BME280;10216;42.658;23.248;2023-07-20T05:32:11;93426.81;;;22.17;73.60
20111;BME280;10216;42.658;23.248;2023-07-20T05:34:36;93426.09;;;22.22;72.88
20111;BME280;10216;42.658;23.248;2023-07-20T05:37:02;93420.91;;;22.27;73.47
20111;BME280;10216;42.658;23.248;2023-07-20T05:39:27;93427.31;;;22.36;74.00
20111;BME280;10216;42.658;23.248;2023-07-20T05:41:53;93433.22;;;22.48;73.08
20111;BME280;10216;42.658;23.248;2023-07-20T05:44:18;93433.34;;;22.58;71.90
20111;BME280;10216;42.658;23.248;2023-07-20T05:46:43;93440.28;;;22.69;71.72
20111;BME280;10216;42.658;23.248;2023-07-20T05:49:09;93442.63;;;22.71;71.69
20111;BME280;10216;42.658;23.248;2023-07-20T05:51:35;93445.41;;;22.81;70.74
20111;BME280;10216;42.658;23.248;2023-07-20T05:54:00;93438.59;;;22.80;69.68
20111;BME280;10216;42.658;23.248;2023-07-20T05:56:25;93433.06;;;22.76;70.07
20111;BME280;10216;42.658;23.248;2023-07-20T05:58:51;93432.13;;;22.87;69.72
20111;BME280;10216;42.658;23.248;2023-07-20T06:01:16;93435.94;;;23.02;69.77
20111;BME280;10216;42.658;23.248;2023-07-20T06:03:43;93431.31;;;23.09;69.34
20111;BME280;10216;42.658;23.248;2023-07-20T06:06:09;93430.84;;;23.17;69.60
20111;BME280;10216;42.658;23.248;2023-07-20T06:08:37;93433.81;;;23.25;69.43
20111;BME280;10216;42.658;23.248;2023-07-20T06:11:02;93432.81;;;23.31;67.51
20111;BME280;10216;42.658;23.248;2023-07-20T06:13:27;93427.97;;;23.45;67.95
20111;BME280;10216;42.658;23.248;2023-07-20T06:15:53;93433.50;;;23.49;66.52
20111;BME280;10216;42.658;23.248;2023-07-20T06:18:18;93428.31;;;23.27;65.96
20111;BME280;10216;42.658;23.248;2023-07-20T06:20:52;93418.09;;;23.52;66.80
20111;BME280;10216;42.658;23.248;2023-07-20T06:23:21;93420.13;;;23.77;66.20
20111;BME280;10216;42.658;23.248;2023-07-20T06:25:46;93415.41;;;23.79;65.83
20111;BME280;10216;42.658;23.248;2023-07-20T06:28:12;93420.16;;;23.82;64.12
20111;BME280;10216;42.658;23.248;2023-07-20T06:30:38;93421.53;;;23.95;64.28
20111;BME280;10216;42.658;23.248;2023-07-20T06:33:03;93410.59;;;24.08;63.50
20111;BME280;10216;42.658;23.248;2023-07-20T06:35:28;93417.06;;;24.32;63.74
20111;BME280;10216;42.658;23.248;2023-07-20T06:37:54;93412.69;;;24.53;63.93
20111;BME280;10216;42.658;23.248;2023-07-20T06:40:19;93405.84;;;24.52;61.33
20111;BME280;10216;42.658;23.248;2023-07-20T06:42:45;93407.97;;;24.55;61.87
20111;BME280;10216;42.658;23.248;2023-07-20T06:45:10;93404.63;;;24.80;62.14
20111;BME280;10216;42.658;23.248;2023-07-20T06:47:38;93412.59;;;25.00;62.14
20111;BME280;10216;42.658;23.248;2023-07-20T06:50:05;93415.00;;;25.22;62.52
20111;BME280;10216;42.658;23.248;2023-07-20T06:52:31;93409.53;;;25.59;60.60
20111;BME280;10216;42.658;23.248;2023-07-20T06:54:56;93421.84;;;26.04;58.43
20111;BME280;10216;42.658;23.248;2023-07-20T06:57:22;93435.66;;;26.70;58.51
20111;BME280;10216;42.658;23.248;2023-07-20T06:59:47;93434.38;;;27.17;57.47
20111;BME280;10216;42.658;23.248;2023-07-20T07:02:13;93437.88;;;27.46;55.24
20111;BME280;10216;42.658;23.248;2023-07-20T07:04:39;93447.84;;;27.59;54.97
20111;BME280;10216;42.658;23.248;2023-07-20T07:07:04;93442.63;;;27.49;54.32
20111;BME280;10216;42.658;23.248;2023-07-20T07:09:30;93455.47;;;27.22;53.46
20111;BME280;10216;42.658;23.248;2023-07-20T07:11:55;93459.16;;;27.21;55.56
20111;BME280;10216;42.658;23.248;2023-07-20T07:14:20;93459.59;;;27.33;54.23
20111;BME280;10216;42.658;23.248;2023-07-20T07:16:47;93488.03;;;27.41;54.62
20111;BME280;10216;42.658;23.248;2023-07-20T07:19:13;93481.50;;;27.34;54.49
20111;BME280;10216;42.658;23.248;2023-07-20T07:21:38;93486.31;;;27.16;55.88
20111;BME280;10216;42.658;23.248;2023-07-20T07:24:04;93488.72;;;27.13;56.77
20111;BME280;10216;42.658;23.248;2023-07-20T07:26:32;93492.91;;;27.19;56.77
20111;BME280;10216;42.658;23.248;2023-07-20T07:28:57;93494.63;;;27.39;57.06
20111;BME280;10216;42.658;23.248;2023-07-20T07:31:25;93494.38;;;27.40;56.82
20111;BME280;10216;42.658;23.248;2023-07-20T07:33:50;93480.34;;;27.50;57.39
20111;BME280;10216;42.658;23.248;2023-07-20T07:36:16;93482.34;;;27.68;56.83
20111;BME280;10216;42.658;23.248;2023-07-20T07:38:41;93474.53;;;27.92;57.81
20111;BME280;10216;42.658;23.248;2023-07-20T07:41:06;93478.03;;;28.11;57.23
20111;BME280;10216;42.658;23.248;2023-07-20T07:43:32;93477.09;;;28.02;56.44
20111;BME280;10216;42.658;23.248;2023-07-20T07:45:58;93464.78;;;28.21;56.20
20111;BME280;10216;42.658;23.248;2023-07-20T07:48:24;93449.34;;;28.33;55.95
20111;BME280;10216;42.658;23.248;2023-07-20T07:50:50;93447.56;;;28.53;56.20
20111;BME280;10216;42.658;23.248;2023-07-20T07:53:16;93450.09;;;28.63;55.17
20111;BME280;10216;42.658;23.248;2023-07-20T07:55:41;93456.19;;;28.87;54.23
20111;BME280;10216;42.658;23.248;2023-07-20T07:58:07;93442.69;;;29.07;54.50
20111;BME280;10216;42.658;23.248;2023-07-20T08:00:32;93437.22;;;29.23;52.97
20111;BME280;10216;42.658;23.248;2023-07-20T08:02:58;93450.19;;;29.43;52.67
20111;BME280;10216;42.658;23.248;2023-07-20T08:05:23;93476.63;;;29.62;51.84
20111;BME280;10216;42.658;23.248;2023-07-20T08:07:49;93489.00;;;29.47;51.35
20111;BME280;10216;42.658;23.248;2023-07-20T08:10:14;93497.25;;;29.46;51.56
20111;BME280;10216;42.658;23.248;2023-07-20T08:12:40;93504.31;;;28.84;53.03
20111;BME280;10216;42.658;23.248;2023-07-20T08:15:05;93503.88;;;28.77;54.20
20111;BME280;10216;42.658;23.248;2023-07-20T08:17:31;93501.91;;;28.88;54.00
20111;BME280;10216;42.658;23.248;2023-07-20T08:19:56;93516.75;;;28.55;52.60
20111;BME280;10216;42.658;23.248;2023-07-20T08:22:22;93518.00;;;28.33;52.88
20111;BME280;10216;42.658;23.248;2023-07-20T08:24:47;93511.72;;;28.58;52.58
20111;BME280;10216;42.658;23.248;2023-07-20T08:27:13;93511.44;;;28.89;51.48
20111;BME280;10216;42.658;23.248;2023-07-20T08:29:38;93508.56;;;29.04;49.65
20111;BME280;10216;42.658;23.248;2023-07-20T08:32:05;93530.03;;;29.02;48.67
20111;BME280;10216;42.658;23.248;2023-07-20T08:34:31;93528.72;;;29.24;47.95
20111;BME280;10216;42.658;23.248;2023-07-20T08:36:57;93518.69;;;29.21;47.11
20111;BME280;10216;42.658;23.248;2023-07-20T08:39:23;93524.00;;;29.82;47.24
20111;BME280;10216;42.658;23.248;2023-07-20T08:41:49;93524.41;;;30.08;46.49
20111;BME280;10216;42.658;23.248;2023-07-20T08:44:15;93524.50;;;30.35;45.20
20111;BME280;10216;42.658;23.248;2023-07-20T08:46:42;93526.56;;;30.38;44.83
20111;BME280;10216;42.658;23.248;2023-07-20T08:49:08;93514.84;;;30.58;44.72
20111;BME280;10216;42.658;23.248;2023-07-20T08:51:35;93512.91;;;31.46;44.87
20111;BME280;10216;42.658;23.248;2023-07-20T08:54:01;93507.81;;;32.07;43.39
20111;BME280;10216;42.658;23.248;2023-07-20T08:56:26;93506.97;;;32.43;42.24
20111;BME280;10216;42.658;23.248;2023-07-20T08:58:53;93519.75;;;32.63;41.49
20111;BME280;10216;42.658;23.248;2023-07-20T09:01:19;93508.09;;;31.61;41.78
20111;BME280;10216;42.658;23.248;2023-07-20T09:03:45;93506.00;;;31.58;40.60
20111;BME280;10216;42.658;23.248;2023-07-20T09:06:12;93503.47;;;31.89;40.21
20111;BME280;10216;42.658;23.248;2023-07-20T09:08:41;93507.66;;;32.57;39.58
20111;BME280;10216;42.658;23.248;2023-07-20T09:11:07;93501.75;;;33.00;39.78
20111;BME280;10216;42.658;23.248;2023-07-20T09:13:33;93505.34;;;32.64;40.00
20111;BME280;10216;42.658;23.248;2023-07-20T09:15:59;93511.97;;;33.54;39.06
20111;BME280;10216;42.658;23.248;2023-07-20T09:18:26;93501.72;;;33.22;38.22
20111;BME280;10216;42.658;23.248;2023-07-20T09:20:53;93494.22;;;34.53;37.72
20111;BME280;10216;42.658;23.248;2023-07-20T09:23:19;93495.59;;;35.14;36.84
20111;BME280;10216;42.658;23.248;2023-07-20T09:25:45;93500.03;;;35.40;36.84
20111;BME280;10216;42.658;23.248;2023-07-20T09:28:16;93496.59;;;34.55;36.93
20111;BME280;10216;42.658;23.248;2023-07-20T09:30:41;93494.50;;;34.69;36.73
20111;BME280;10216;42.658;23.248;2023-07-20T09:33:18;93499.75;;;34.39;36.68
20111;BME280;10216;42.658;23.248;2023-07-20T09:35:43;93503.00;;;35.38;36.49
20111;BME280;10216;42.658;23.248;2023-07-20T09:38:09;93502.22;;;35.38;36.44
20111;BME280;10216;42.658;23.248;2023-07-20T09:40:37;93499.03;;;35.74;35.38
20111;BME280;10216;42.658;23.248;2023-07-20T09:43:07;93491.47;;;35.96;34.95
20111;BME280;10216;42.658;23.248;2023-07-20T09:45:43;93496.50;;;36.19;33.45
20111;BME280;10216;42.658;23.248;2023-07-20T09:48:10;93499.50;;;36.62;32.73
20111;BME280;10216;42.658;23.248;2023-07-20T09:50:40;93488.69;;;37.16;32.35
20111;BME280;10216;42.658;23.248;2023-07-20T09:53:12;93472.78;;;37.72;31.76
20111;BME280;10216;42.658;23.248;2023-07-20T09:55:41;93454.94;;;36.21;34.88
20111;BME280;10216;42.658;23.248;2023-07-20T09:58:10;93451.03;;;35.36;34.08
20111;BME280;10216;42.658;23.248;2023-07-20T10:00:37;93445.22;;;33.42;37.00
20111;BME280;10216;42.658;23.248;2023-07-20T10:03:04;93441.47;;;32.86;37.61
20111;BME280;10216;42.658;23.248;2023-07-20T10:05:35;93442.81;;;32.13;39.23
20111;BME280;10216;42.658;23.248;2023-07-20T10:08:02;93443.81;;;31.73;38.46
20111;BME280;10216;42.658;23.248;2023-07-20T10:10:31;93449.94;;;30.69;41.23
20111;BME280;10216;42.658;23.248;2023-07-20T10:12:58;93448.28;;;30.87;40.28
20111;BME280;10216;42.658;23.248;2023-07-20T10:15:33;93453.69;;;30.82;42.13
20111;BME280;10216;42.658;23.248;2023-07-20T10:18:09;93456.94;;;30.79;41.23
20111;BME280;10216;42.658;23.248;2023-07-20T10:20:39;93460.19;;;30.89;41.71
20111;BME280;10216;42.658;23.248;2023-07-20T10:23:06;93464.19;;;31.00;41.31
20111;BME280;10216;42.658;23.248;2023-07-20T10:25:33;93461.94;;;30.94;42.21
20111;BME280;10216;42.658;23.248;2023-07-20T10:28:04;93454.56;;;31.18;42.00
20111;BME280;10216;42.658;23.248;2023-07-20T10:30:31;93447.09;;;31.07;40.12
20111;BME280;10216;42.658;23.248;2023-07-20T10:32:57;93439.69;;;32.11;41.66
20111;BME280;10216;42.658;23.248;2023-07-20T10:35:23;93433.78;;;33.42;38.80
20111;BME280;10216;42.658;23.248;2023-07-20T10:37:53;93447.28;;;32.88;37.65
20111;BME280;10216;42.658;23.248;2023-07-20T10:40:38;93445.53;;;31.91;39.51
20111;BME280;10216;42.658;23.248;2023-07-20T10:43:08;93405.81;;;31.50;40.28
20111;BME280;10216;42.658;23.248;2023-07-20T10:48:06;93357.44;;;30.81;42.23
20111;BME280;10216;42.658;23.248;2023-07-20T10:50:35;93381.41;;;30.90;44.01
20111;BME280;10216;42.658;23.248;2023-07-20T10:53:14;93390.81;;;30.96;43.54
20111;BME280;10216;42.658;23.248;2023-07-20T10:55:40;93378.75;;;30.90;44.80
20111;BME280;10216;42.658;23.248;2023-07-20T10:58:11;93364.88;;;30.93;44.78
20111;BME280;10216;42.658;23.248;2023-07-20T11:00:44;93360.00;;;30.73;43.67
20111;BME280;10216;42.658;23.248;2023-07-20T11:03:28;93359.69;;;30.88;44.39
20111;BME280;10216;42.658;23.248;2023-07-20T11:05:55;93356.06;;;31.33;43.04
20111;BME280;10216;42.658;23.248;2023-07-20T11:08:38;93358.75;;;32.48;42.30
20111;BME280;10216;42.658;23.248;2023-07-20T11:11:30;93368.44;;;34.42;40.76
20111;BME280;10216;42.658;23.248;2023-07-20T11:14:00;93373.75;;;35.31;37.71
20111;BME280;10216;42.658;23.248;2023-07-20T11:16:35;93372.63;;;36.88;36.26
20111;BME280;10216;42.658;23.248;2023-07-20T11:19:02;93376.06;;;37.65;34.88
20111;BME280;10216;42.658;23.248;2023-07-20T11:21:29;93376.94;;;37.97;33.99
20111;BME280;10216;42.658;23.248;2023-07-20T11:23:55;93378.84;;;37.68;33.92
20111;BME280;10216;42.658;23.248;2023-07-20T11:26:20;93373.97;;;37.86;33.74
20111;BME280;10216;42.658;23.248;2023-07-20T11:28:49;93367.94;;;37.49;33.13
20111;BME280;10216;42.658;23.248;2023-07-20T11:31:17;93365.25;;;36.60;34.08
20111;BME280;10216;42.658;23.248;2023-07-20T11:33:42;93367.19;;;36.72;35.08
20111;BME280;10216;42.658;23.248;2023-07-20T11:36:10;93363.06;;;38.22;33.31
20111;BME280;10216;42.658;23.248;2023-07-20T11:38:36;93351.47;;;39.51;32.58
20111;BME280;10216;42.658;23.248;2023-07-20T11:41:04;93352.59;;;39.50;30.56
20111;BME280;10216;42.658;23.248;2023-07-20T11:43:30;93351.13;;;40.14;29.94
20111;BME280;10216;42.658;23.248;2023-07-20T11:45:55;93348.53;;;40.89;28.94
20111;BME280;10216;42.658;23.248;2023-07-20T11:48:21;93350.88;;;40.91;28.97
20111;BME280;10216;42.658;23.248;2023-07-20T11:50:46;93346.56;;;40.64;28.97
20111;BME280;10216;42.658;23.248;2023-07-20T11:53:12;93345.06;;;41.45;28.60
20111;BME280;10216;42.658;23.248;2023-07-20T11:55:40;93335.50;;;42.15;28.37
20111;BME280;10216;42.658;23.248;2023-07-20T11:58:08;93328.53;;;41.17;28.20
20111;BME280;10216;42.658;23.248;2023-07-20T12:00:34;93337.72;;;42.09;26.60
20111;BME280;10216;42.658;23.248;2023-07-20T12:03:00;93332.25;;;42.02;27.59
20111;BME280;10216;42.658;23.248;2023-07-20T12:05:26;93336.06;;;42.34;26.93
20111;BME280;10216;42.658;23.248;2023-07-20T12:07:52;93332.19;;;41.95;28.35
20111;BME280;10216;42.658;23.248;2023-07-20T12:10:28;93327.53;;;42.76;27.38
20111;BME280;10216;42.658;23.248;2023-07-20T12:12:54;93310.44;;;42.65;26.78
20111;BME280;10216;42.658;23.248;2023-07-20T12:17:46;93317.13;;;41.57;28.41
20111;BME280;10216;42.658;23.248;2023-07-20T12:20:12;93316.63;;;41.18;27.12
20111;BME280;10216;42.658;23.248;2023-07-20T12:22:39;93317.72;;;40.87;27.25
20111;BME280;10216;42.658;23.248;2023-07-20T12:25:06;93321.09;;;40.57;28.38
20111;BME280;10216;42.658;23.248;2023-07-20T12:27:32;93296.19;;;39.73;27.42
20111;BME280;10216;42.658;23.248;2023-07-20T12:29:57;93311.38;;;39.08;27.75
20111;BME280;10216;42.658;23.248;2023-07-20T12:32:22;93308.06;;;38.79;28.06
20111;BME280;10216;42.658;23.248;2023-07-20T12:34:48;93300.47;;;38.34;29.63
20111;BME280;10216;42.658;23.248;2023-07-20T12:37:13;93292.75;;;38.64;28.76
20111;BME280;10216;42.658;23.248;2023-07-20T12:39:38;93289.63;;;37.99;29.16
20111;BME280;10216;42.658;23.248;2023-07-20T12:42:06;93292.28;;;37.00;29.34
20111;BME280;10216;42.658;23.248;2023-07-20T12:44:31;93298.31;;;36.97;31.33
20111;BME280;10216;42.658;23.248;2023-07-20T12:46:56;93294.69;;;36.28;30.14
20111;BME280;10216;42.658;23.248;2023-07-20T12:49:22;93286.66;;;36.16;29.96
20111;BME280;10216;42.658;23.248;2023-07-20T12:51:47;93291.72;;;35.85;30.10
20111;BME280;10216;42.658;23.248;2023-07-20T12:54:12;93276.56;;;35.77;32.03
20111;BME280;10216;42.658;23.248;2023-07-20T12:56:38;93276.88;;;35.75;31.88
20111;BME280;10216;42.658;23.248;2023-07-20T12:59:03;93275.31;;;35.74;31.35
20111;BME280;10216;42.658;23.248;2023-07-20T13:01:30;93273.56;;;35.90;32.03
20111;BME280;10216;42.658;23.248;2023-07-20T13:03:57;93273.53;;;36.23;30.78